createdAt,value
2023-11-28T00:02:19.489Z,62.73
2023-11-28T00:04:51.376Z,62.91
2023-11-28T00:07:22.350Z,62.94
2023-11-28T00:09:53.331Z,62.87
2023-11-28T00:12:25.612Z,63.17
2023-11-28T00:14:56.479Z,63.41
2023-11-28T00:17:27.395Z,63.27
2023-11-28T00:19:58.309Z,63.67
2023-11-28T00:22:29.176Z,63.97
2023-11-28T00:25:00.060Z,63.93
2023-11-28T00:27:30.875Z,64.13
2023-11-28T00:30:01.725Z,64.11
2023-11-28T00:32:32.592Z,64.43
2023-11-28T00:35:03.781Z,64.21
2023-11-28T00:37:34.750Z,64.28
2023-11-28T00:40:08.584Z,63.94
2023-11-28T00:42:39.398Z,63.77
2023-11-28T00:45:13.752Z,64.04
2023-11-28T00:47:45.271Z,63.88
2023-11-28T00:50:19.160Z,63.72
2023-11-28T00:52:50.740Z,63.65
2023-11-28T00:55:22.923Z,63.72
2023-11-28T00:57:54.621Z,63.78
2023-11-28T01:00:25.534Z,63.86
2023-11-28T01:02:57.036Z,63.84
2023-11-28T01:05:28.056Z,63.81
2023-11-28T01:07:59.091Z,63.70
2023-11-28T01:10:30.003Z,63.97
2023-11-28T01:13:00.794Z,64.05
2023-11-28T01:15:31.696Z,64.43
2023-11-28T01:18:02.524Z,64.40
2023-11-28T01:20:33.336Z,64.32
2023-11-28T01:23:04.170Z,64.47
2023-11-28T01:25:35.104Z,65.15
2023-11-28T01:28:06.310Z,65.01
2023-11-28T01:30:37.174Z,65.18
2023-11-28T01:33:08.161Z,64.96
2023-11-28T01:35:40.124Z,64.73
2023-11-28T01:38:11.305Z,65.06
2023-11-28T01:40:42.263Z,65.25
2023-11-28T01:43:24.249Z,65.01
2023-11-28T01:45:55.697Z,64.73
2023-11-28T01:48:26.688Z,64.71
2023-11-28T01:50:57.833Z,64.71
2023-11-28T01:53:30.286Z,64.67
2023-11-28T01:56:02.009Z,64.49
2023-11-28T01:58:33.108Z,64.69
2023-11-28T02:01:04.555Z,64.55
2023-11-28T02:03:36.248Z,64.67
2023-11-28T02:06:07.581Z,64.65
2023-11-28T02:08:39.261Z,64.67
2023-11-28T02:11:10.389Z,64.61
2023-11-28T02:13:41.285Z,65.00
2023-11-28T02:16:17.178Z,64.91
2023-11-28T02:18:48.750Z,64.86
2023-11-28T02:21:19.639Z,64.81
2023-11-28T02:23:50.640Z,64.72
2023-11-28T02:26:27.552Z,64.54
2023-11-28T02:28:57.392Z,64.44
2023-11-28T02:31:28.409Z,64.72
2023-11-28T02:33:59.526Z,64.86
2023-11-28T02:36:31.048Z,64.67
2023-11-28T02:39:01.910Z,64.48
2023-11-28T02:41:32.759Z,64.49
2023-11-28T02:44:03.734Z,64.63
2023-11-28T02:46:34.710Z,64.75
2023-11-28T02:49:05.678Z,64.87
2023-11-28T02:51:36.547Z,64.92
2023-11-28T02:54:07.649Z,64.69
2023-11-28T02:56:38.497Z,64.85
2023-11-28T02:59:09.306Z,64.77
2023-11-28T03:01:40.201Z,64.85
2023-11-28T03:04:11.071Z,64.88
2023-11-28T03:06:42.910Z,65.06
2023-11-28T03:09:13.719Z,65.07
2023-11-28T03:11:44.860Z,64.92
2023-11-28T03:14:15.709Z,65.03
2023-11-28T03:16:46.597Z,65.08
2023-11-28T03:19:17.861Z,65.18
2023-11-28T03:21:48.742Z,65.24
2023-11-28T03:24:19.534Z,65.29
2023-11-28T03:26:50.350Z,65.35
2023-11-28T03:29:21.241Z,65.35
2023-11-28T03:31:52.146Z,65.43
2023-11-28T03:34:22.986Z,65.38
2023-11-28T03:36:54.565Z,65.45
2023-11-28T03:39:25.936Z,65.23
2023-11-28T03:41:57.049Z,65.38
2023-11-28T03:44:27.850Z,65.38
2023-11-28T03:46:58.696Z,70.66
2023-11-28T03:49:29.593Z,66.89
2023-11-28T03:52:00.475Z,66.03
2023-11-28T03:54:31.255Z,66.12
2023-11-28T03:57:02.059Z,66.00
2023-11-28T03:59:32.850Z,65.98
2023-11-28T04:02:03.802Z,66.51
2023-11-28T04:04:34.829Z,66.64
2023-11-28T04:07:06.751Z,66.87
2023-11-28T04:09:37.976Z,67.09
2023-11-28T04:12:09.525Z,67.12
2023-11-28T04:14:40.486Z,67.24
2023-11-28T04:17:11.287Z,67.62
2023-11-28T04:19:42.193Z,67.58
2023-11-28T04:22:13.064Z,67.61
2023-11-28T04:24:43.956Z,67.49
2023-11-28T04:27:14.890Z,67.92
2023-11-28T04:29:46.161Z,68.14
2023-11-28T04:32:17.018Z,68.35
2023-11-28T04:34:47.964Z,68.31
2023-11-28T04:37:18.911Z,68.40
2023-11-28T04:39:51.662Z,68.55
2023-11-28T04:42:22.590Z,68.61
2023-11-28T04:44:53.531Z,68.93
2023-11-28T04:47:24.457Z,69.17
2023-11-28T04:49:55.790Z,69.38
2023-11-28T04:52:26.635Z,69.46
2023-11-28T04:54:57.664Z,69.62
2023-11-28T04:57:28.479Z,69.43
2023-11-28T04:59:59.323Z,69.71
2023-11-28T05:02:30.210Z,69.82
2023-11-28T05:05:01.207Z,69.78
2023-11-28T05:07:35.044Z,69.70
2023-11-28T05:10:08.407Z,69.74
2023-11-28T05:12:39.228Z,69.52
2023-11-28T05:15:11.268Z,69.66
2023-11-28T05:17:42.216Z,69.86
2023-11-28T05:20:14.663Z,69.92
2023-11-28T05:22:45.573Z,69.93
2023-11-28T05:25:16.956Z,69.99
2023-11-28T05:27:49.621Z,69.93
2023-11-28T05:30:20.748Z,69.93
2023-11-28T05:32:51.706Z,69.91
2023-11-28T05:35:22.912Z,70.02
2023-11-28T05:37:53.766Z,70.01
2023-11-28T05:40:24.676Z,69.81
2023-11-28T05:42:55.737Z,69.77
2023-11-28T05:45:27.152Z,69.71
2023-11-28T05:47:58.103Z,69.85
2023-11-28T05:50:29.151Z,69.93
2023-11-28T05:53:01.470Z,69.99
2023-11-28T05:55:32.399Z,70.05
2023-11-28T05:58:03.253Z,70.23
2023-11-28T06:00:35.781Z,78.73
2023-11-28T06:03:06.961Z,74.92
2023-11-28T06:05:41.333Z,72.23
2023-11-28T06:08:13.615Z,71.22
2023-11-28T06:10:45.519Z,70.68
2023-11-28T06:13:17.451Z,70.50
2023-11-28T06:15:48.313Z,70.30
2023-11-28T06:18:19.228Z,70.29
2023-11-28T06:20:50.138Z,70.32
2023-11-28T06:23:21.079Z,70.26
2023-11-28T06:25:52.188Z,70.46
2023-11-28T06:28:23.016Z,70.63
2023-11-28T06:30:53.915Z,70.58
2023-11-28T06:33:24.906Z,70.63
2023-11-28T06:35:55.888Z,70.70
2023-11-28T06:38:27.869Z,70.71
2023-11-28T06:40:59.234Z,70.71
2023-11-28T06:43:30.061Z,70.64
2023-11-28T06:46:01.631Z,70.46
2023-11-28T06:48:32.818Z,70.55
2023-11-28T06:51:03.771Z,70.67
2023-11-28T06:53:34.591Z,70.69
2023-11-28T06:56:07.162Z,70.68
2023-11-28T06:58:38.057Z,70.58
2023-11-28T07:01:09.485Z,70.56
2023-11-28T07:03:40.516Z,70.55
2023-11-28T07:06:12.427Z,70.73
2023-11-28T07:08:43.320Z,70.61
2023-11-28T07:11:21.169Z,70.84
2023-11-28T07:13:52.504Z,70.88
2023-11-28T07:16:23.782Z,70.97
2023-11-28T07:18:54.654Z,70.90
2023-11-28T07:21:25.504Z,70.86
2023-11-28T07:23:56.357Z,70.68
2023-11-28T07:26:27.193Z,70.78
2023-11-28T07:28:58.214Z,70.65
2023-11-28T07:31:30.958Z,70.68
2023-11-28T07:34:01.967Z,70.72
2023-11-28T07:36:32.902Z,70.83
2023-11-28T07:39:05.364Z,70.99
2023-11-28T07:41:36.239Z,70.94
2023-11-28T07:44:07.933Z,71.15
2023-11-28T07:46:38.883Z,71.36
2023-11-28T07:49:09.773Z,71.17
2023-11-28T07:51:40.668Z,70.98
2023-11-28T07:54:12.255Z,70.79
2023-11-28T07:56:43.098Z,70.86
2023-11-28T07:59:14.050Z,70.78
2023-11-28T08:01:45.020Z,70.88
2023-11-28T08:04:16.127Z,70.95
2023-11-28T08:06:47.066Z,70.95
2023-11-28T08:09:17.979Z,70.82
2023-11-28T08:11:52.251Z,70.82
2023-11-28T08:14:23.279Z,70.88
2023-11-28T08:16:54.282Z,71.08
2023-11-28T08:19:25.292Z,70.96
2023-11-28T08:21:56.405Z,70.87
2023-11-28T08:24:27.297Z,70.79
2023-11-28T08:26:58.205Z,70.78
2023-11-28T08:29:29.151Z,70.85
2023-11-28T08:32:00.401Z,70.83
2023-11-28T08:34:31.459Z,74.58
2023-11-28T08:37:03.148Z,77.66
2023-11-28T08:39:34.077Z,75.94
2023-11-28T08:42:05.248Z,72.33
2023-11-28T08:44:36.405Z,70.94
2023-11-28T08:47:07.674Z,70.08
2023-11-28T08:49:38.680Z,69.34
2023-11-28T08:52:11.706Z,69.49
2023-11-28T08:54:45.068Z,69.35
2023-11-28T08:57:16.919Z,69.16
2023-11-28T08:59:47.954Z,68.79
2023-11-28T09:02:19.006Z,68.71
2023-11-28T09:04:50.011Z,68.73
2023-11-28T09:07:20.953Z,68.91
2023-11-28T09:09:52.120Z,69.07
2023-11-28T09:12:22.934Z,69.38
2023-11-28T09:14:56.515Z,69.45
2023-11-28T09:17:27.972Z,69.74
2023-11-28T09:19:58.937Z,69.49
2023-11-28T09:22:29.759Z,69.32
2023-11-28T09:25:00.867Z,69.29
2023-11-28T09:27:31.674Z,69.20
2023-11-28T09:30:02.569Z,68.88
2023-11-28T09:32:33.614Z,68.97
2023-11-28T09:35:04.873Z,68.81
2023-11-28T09:37:36.985Z,68.61
2023-11-28T09:40:09.606Z,68.54
2023-11-28T09:42:45.584Z,68.65
2023-11-28T09:45:19.430Z,68.95
2023-11-28T09:47:51.569Z,68.98
2023-11-28T09:50:27.120Z,68.86
2023-11-28T09:53:00.286Z,68.88
2023-11-28T09:55:32.923Z,68.95
2023-11-28T09:58:05.313Z,68.56
2023-11-28T10:00:38.023Z,68.35
2023-11-28T10:03:09.253Z,68.59
2023-11-28T10:05:41.095Z,68.64
2023-11-28T10:08:13.701Z,68.64
2023-11-28T10:10:46.250Z,68.46
2023-11-28T10:13:17.194Z,67.99
2023-11-28T10:15:51.506Z,67.92
2023-11-28T10:18:24.875Z,68.39
2023-11-28T10:20:55.997Z,68.06
2023-11-28T10:23:27.658Z,67.97
2023-11-28T10:25:58.659Z,67.79
2023-11-28T10:28:29.546Z,67.78
2023-11-28T10:31:00.706Z,67.64
2023-11-28T10:33:31.573Z,67.66
2023-11-28T10:36:02.464Z,71.02
2023-11-28T10:38:36.118Z,72.51
2023-11-28T10:41:07.635Z,69.11
2023-11-28T10:43:38.637Z,68.33
2023-11-28T10:46:11.337Z,67.05
2023-11-28T10:48:42.329Z,68.72
2023-11-28T10:51:14.721Z,72.49
2023-11-28T10:53:48.481Z,68.99
2023-11-28T10:56:22.740Z,67.20
2023-11-28T10:58:54.105Z,66.79
2023-11-28T11:01:25.495Z,67.04
2023-11-28T11:03:56.738Z,68.56
2023-11-28T11:06:27.744Z,66.36
2023-11-28T11:09:00.413Z,66.05
2023-11-28T11:11:31.509Z,65.55
2023-11-28T11:14:12.515Z,65.34
2023-11-28T11:16:50.734Z,65.14
2023-11-28T11:19:22.988Z,64.91
2023-11-28T11:22:05.574Z,64.73
2023-11-28T11:24:37.375Z,64.66
2023-11-28T11:27:10.128Z,65.08
2023-11-28T11:29:43.221Z,64.98
2023-11-28T11:32:20.064Z,64.69
2023-11-28T11:34:52.632Z,67.58
2023-11-28T11:37:31.664Z,66.00
2023-11-28T11:40:03.469Z,64.36
2023-11-28T11:42:36.058Z,63.53
2023-11-28T11:45:10.693Z,63.32
2023-11-28T11:47:41.642Z,62.97
2023-11-28T11:50:17.357Z,62.75
2023-11-28T11:52:50.711Z,61.99
2023-11-28T11:55:21.666Z,61.81
2023-11-28T11:57:52.517Z,61.32
2023-11-28T12:00:24.474Z,61.05
2023-11-28T12:02:57.901Z,60.82
2023-11-28T12:05:28.940Z,60.70
2023-11-28T12:08:01.704Z,60.64
2023-11-28T12:10:32.575Z,60.74
2023-11-28T12:13:03.501Z,60.74
2023-11-28T12:15:34.770Z,60.84
2023-11-28T12:18:13.958Z,60.86
2023-11-28T12:20:45.334Z,60.96
2023-11-28T12:23:16.687Z,60.88
2023-11-28T12:25:47.594Z,60.91
2023-11-28T12:28:18.797Z,60.86
2023-11-28T12:30:50.380Z,61.10
2023-11-28T12:33:22.248Z,60.97
2023-11-28T12:35:53.360Z,61.20
2023-11-28T12:38:24.404Z,61.28
2023-11-28T12:41:03.071Z,61.21
2023-11-28T12:43:41.244Z,61.43
2023-11-28T12:46:12.223Z,61.45
2023-11-28T12:48:45.102Z,61.84
2023-11-28T12:51:16.409Z,61.76
2023-11-28T12:53:49.624Z,62.03
2023-11-28T12:56:20.873Z,62.71
2023-11-28T12:58:52.232Z,62.71
2023-11-28T13:01:23.546Z,65.44
2023-11-28T13:03:54.592Z,64.24
2023-11-28T13:06:26.167Z,63.12
2023-11-28T13:08:57.134Z,61.55
2023-11-28T13:11:28.048Z,61.07
2023-11-28T13:13:59.100Z,60.87
2023-11-28T13:16:30.922Z,60.55
2023-11-28T13:19:02.264Z,60.29
2023-11-28T13:21:36.904Z,60.39
2023-11-28T13:24:10.123Z,59.92
2023-11-28T13:26:41.598Z,59.96
2023-11-28T13:29:13.185Z,59.66
2023-11-28T13:31:45.942Z,59.77
2023-11-28T13:34:16.988Z,59.97
2023-11-28T13:36:48.492Z,59.93
2023-11-28T13:39:19.405Z,59.72
2023-11-28T13:41:50.277Z,59.74
2023-11-28T13:44:23.272Z,59.59
2023-11-28T13:46:54.360Z,59.19
2023-11-28T13:49:25.281Z,58.18
2023-11-28T13:51:57.004Z,58.18
2023-11-28T13:54:27.925Z,58.07
2023-11-28T13:56:59.079Z,58.32
2023-11-28T13:59:32.541Z,58.38
2023-11-28T14:02:03.715Z,58.88
2023-11-28T14:04:34.674Z,59.32
2023-11-28T14:07:05.561Z,59.39
2023-11-28T14:09:36.424Z,59.42
2023-11-28T14:12:07.846Z,59.83
2023-11-28T14:14:50.193Z,60.08
2023-11-28T14:17:25.451Z,60.23
2023-11-28T14:19:56.590Z,60.73
2023-11-28T14:22:27.684Z,61.20
2023-11-28T14:24:58.551Z,61.35
2023-11-28T14:27:29.638Z,61.47
2023-11-28T14:30:00.491Z,61.63
2023-11-28T14:32:31.607Z,61.56
2023-11-28T14:35:03.733Z,61.83
2023-11-28T14:37:34.649Z,61.84
2023-11-28T14:40:09.669Z,62.04
2023-11-28T14:42:41.505Z,62.17
2023-11-28T14:45:13.337Z,62.65
2023-11-28T14:47:45.581Z,62.73
2023-11-28T14:50:16.710Z,63.22
2023-11-28T14:52:47.587Z,63.43
2023-11-28T14:55:18.573Z,63.77
2023-11-28T14:57:49.499Z,63.74
2023-11-28T15:00:21.955Z,63.68
2023-11-28T15:02:54.689Z,64.16
2023-11-28T15:05:25.645Z,64.50
2023-11-28T15:07:56.928Z,64.57
2023-11-28T15:10:27.903Z,64.65
2023-11-28T15:12:59.216Z,64.58
2023-11-28T15:15:30.085Z,64.66
2023-11-28T15:18:01.201Z,65.13
2023-11-28T15:20:32.118Z,64.89
2023-11-28T15:23:03.322Z,64.95
2023-11-28T15:25:34.907Z,64.73
2023-11-28T15:28:06.284Z,65.02
2023-11-28T15:30:37.564Z,65.31
2023-11-28T15:33:08.670Z,65.36
2023-11-28T15:35:39.922Z,65.41
2023-11-28T15:38:10.847Z,65.68
2023-11-28T15:40:41.751Z,65.52
2023-11-28T15:43:12.715Z,65.44
2023-11-28T15:45:43.798Z,65.67
2023-11-28T15:48:14.763Z,66.00
2023-11-28T15:50:45.827Z,66.17
2023-11-28T15:53:16.823Z,66.35
2023-11-28T15:55:47.813Z,66.48
2023-11-28T15:58:18.716Z,66.58
2023-11-28T16:00:50.213Z,66.66
2023-11-28T16:03:21.173Z,66.58
2023-11-28T16:05:52.260Z,66.67
2023-11-28T16:08:23.110Z,66.74
2023-11-28T16:10:54.848Z,66.71
2023-11-28T16:13:26.160Z,66.61
2023-11-28T16:15:58.359Z,66.71
2023-11-28T16:18:29.298Z,66.92
2023-11-28T16:21:00.272Z,66.98
2023-11-28T16:23:31.253Z,67.24
2023-11-28T16:26:02.354Z,67.59
2023-11-28T16:28:34.917Z,67.96
2023-11-28T16:31:05.780Z,67.67
2023-11-28T16:33:39.633Z,68.09
2023-11-28T16:36:13.916Z,68.17
2023-11-28T16:38:44.790Z,67.90
2023-11-28T16:41:18.356Z,67.47
2023-11-28T16:43:49.264Z,67.40
2023-11-28T16:46:20.291Z,67.32
2023-11-28T16:48:53.687Z,66.46
2023-11-28T16:51:25.153Z,65.17
2023-11-28T16:53:56.291Z,62.59
2023-11-28T16:56:27.444Z,61.97
2023-11-28T16:58:58.368Z,62.19
2023-11-28T17:01:29.277Z,62.05
2023-11-28T17:04:00.255Z,62.01
2023-11-28T17:06:31.083Z,61.51
2023-11-28T17:09:02.505Z,61.20
2023-11-28T17:11:33.945Z,61.21
2023-11-28T17:14:04.854Z,61.04
2023-11-28T17:16:40.192Z,61.04
2023-11-28T17:19:11.213Z,60.59
2023-11-28T17:21:42.327Z,60.37
2023-11-28T17:24:13.185Z,60.34
2023-11-28T17:26:46.834Z,60.06
2023-11-28T17:29:18.971Z,59.78
2023-11-28T17:31:51.964Z,59.67
2023-11-28T17:34:23.057Z,59.10
2023-11-28T17:36:54.037Z,58.55
2023-11-28T17:39:26.153Z,58.57
2023-11-28T17:41:58.466Z,58.40
2023-11-28T17:44:30.643Z,58.51
2023-11-28T17:47:01.618Z,58.64
2023-11-28T17:49:32.618Z,58.73
2023-11-28T17:52:03.808Z,58.49
2023-11-28T17:54:34.726Z,58.39
2023-11-28T17:57:05.829Z,57.95
2023-11-28T17:59:36.825Z,57.84
2023-11-28T18:02:08.280Z,57.80
2023-11-28T18:04:42.024Z,57.79
2023-11-28T18:07:15.563Z,57.22
2023-11-28T18:09:51.984Z,57.34
2023-11-28T18:12:22.845Z,57.13
2023-11-28T18:14:53.915Z,56.81
2023-11-28T18:17:25.186Z,56.59
2023-11-28T18:19:58.616Z,56.59
2023-11-28T18:22:29.996Z,56.43
2023-11-28T18:25:00.899Z,56.38
2023-11-28T18:27:32.037Z,56.53
2023-11-28T18:30:06.348Z,55.93
2023-11-28T18:32:37.406Z,55.65
2023-11-28T18:35:09.298Z,55.20
2023-11-28T18:37:40.709Z,55.71
2023-11-28T18:40:14.638Z,55.86
2023-11-28T18:42:45.547Z,55.75
2023-11-28T18:45:18.074Z,55.84
2023-11-28T18:47:49.039Z,55.64
2023-11-28T18:50:20.067Z,56.00
2023-11-28T18:52:50.994Z,56.05
2023-11-28T18:55:23.081Z,55.79
2023-11-28T18:57:54.027Z,55.87
2023-11-28T19:00:25.222Z,56.62
2023-11-28T19:03:00.116Z,56.88
2023-11-28T19:05:33.759Z,56.82
2023-11-28T19:08:05.590Z,56.96
2023-11-28T19:10:37.402Z,56.89
2023-11-28T19:13:08.359Z,56.21
2023-11-28T19:15:39.189Z,56.26
2023-11-28T19:18:10.336Z,56.38
2023-11-28T19:20:41.228Z,56.60
2023-11-28T19:23:12.151Z,57.16
2023-11-28T19:25:46.981Z,57.53
2023-11-28T19:28:18.680Z,57.61
2023-11-28T19:30:50.007Z,57.82
2023-11-28T19:33:21.043Z,57.73
2023-11-28T19:35:51.993Z,57.89
2023-11-28T19:38:22.922Z,57.94
2023-11-28T19:40:53.792Z,57.98
2023-11-28T19:43:24.711Z,69.67
2023-11-28T19:45:55.606Z,64.06
2023-11-28T19:48:26.643Z,61.26
2023-11-28T19:50:57.545Z,60.06
2023-11-28T19:53:28.572Z,59.59
2023-11-28T19:55:59.531Z,59.16
2023-11-28T19:58:33.059Z,58.93
2023-11-28T20:01:05.263Z,58.84
2023-11-28T20:03:38.468Z,59.22
2023-11-28T20:06:09.832Z,59.17
2023-11-28T20:08:42.842Z,58.96
2023-11-28T20:11:13.751Z,58.90
2023-11-28T20:13:45.562Z,59.12
2023-11-28T20:16:16.748Z,58.64
2023-11-28T20:18:47.806Z,58.59
2023-11-28T20:21:19.840Z,58.52
2023-11-28T20:23:54.762Z,58.04
2023-11-28T20:26:25.710Z,63.45
2023-11-28T20:28:56.771Z,69.45
2023-11-28T20:31:27.724Z,60.90
2023-11-28T20:33:58.698Z,59.40
2023-11-28T20:36:31.126Z,58.34
2023-11-28T20:39:06.733Z,57.85
2023-11-28T20:41:37.742Z,57.32
2023-11-28T20:44:09.600Z,56.82
2023-11-28T20:46:40.523Z,56.40
2023-11-28T20:49:11.516Z,55.64
2023-11-28T20:51:42.417Z,55.06
2023-11-28T20:54:13.297Z,55.20
2023-11-28T20:56:45.074Z,55.79
2023-11-28T20:59:16.156Z,55.41
2023-11-28T21:01:47.072Z,55.14
2023-11-28T21:04:17.963Z,54.40
2023-11-28T21:06:49.071Z,54.41
2023-11-28T21:09:20.169Z,54.00
2023-11-28T21:11:51.149Z,53.45
2023-11-28T21:14:24.065Z,52.47
2023-11-28T21:16:55.080Z,53.15
2023-11-28T21:19:25.977Z,53.80
2023-11-28T21:21:58.092Z,53.85
2023-11-28T21:24:29.077Z,54.33
2023-11-28T21:26:59.893Z,52.23
2023-11-28T21:29:30.869Z,52.28
2023-11-28T21:32:02.335Z,53.05
2023-11-28T21:34:34.497Z,52.83
2023-11-28T21:37:05.719Z,52.84
2023-11-28T21:39:36.590Z,53.67
2023-11-28T21:42:07.927Z,53.56
2023-11-28T21:44:39.002Z,53.42
2023-11-28T21:47:11.380Z,52.54
2023-11-28T21:49:43.389Z,53.10
2023-11-28T21:52:14.254Z,53.62
2023-11-28T21:54:45.156Z,53.53
2023-11-28T21:57:16.242Z,53.73
2023-11-28T21:59:47.190Z,53.67
2023-11-28T22:02:19.262Z,53.01
2023-11-28T22:04:51.151Z,53.38
2023-11-28T22:07:22.089Z,53.76
2023-11-28T22:09:55.217Z,53.61
2023-11-28T22:12:26.018Z,53.28
2023-11-28T22:14:56.829Z,53.63
2023-11-28T22:17:27.716Z,53.51
2023-11-28T22:19:59.037Z,53.99
2023-11-28T22:22:29.827Z,53.95
2023-11-28T22:25:01.315Z,53.84
2023-11-28T22:27:32.146Z,53.90
2023-11-28T22:30:03.258Z,53.76
2023-11-28T22:32:34.129Z,53.39
2023-11-28T22:35:05.181Z,53.20
2023-11-28T22:37:36.141Z,53.01
2023-11-28T22:40:08.980Z,52.90
2023-11-28T22:42:39.796Z,52.71
2023-11-28T22:45:12.762Z,53.17
2023-11-28T22:47:43.823Z,53.32
2023-11-28T22:50:14.875Z,53.22
2023-11-28T22:52:45.703Z,53.12
2023-11-28T22:55:16.602Z,53.19
2023-11-28T22:57:47.602Z,52.80
2023-11-28T23:00:19.301Z,52.62
2023-11-28T23:02:50.409Z,52.73
2023-11-28T23:05:21.920Z,52.73
2023-11-28T23:07:52.783Z,52.63
2023-11-28T23:10:23.706Z,52.65
2023-11-28T23:12:54.630Z,52.84
2023-11-28T23:15:26.251Z,52.91
2023-11-28T23:17:57.111Z,52.76
2023-11-28T23:20:27.990Z,52.86
2023-11-28T23:22:59.196Z,53.26
2023-11-28T23:25:30.348Z,53.26
2023-11-28T23:28:01.383Z,53.32
2023-11-28T23:30:32.230Z,53.24
2023-11-28T23:33:03.160Z,53.48
2023-11-28T23:35:34.032Z,53.52
2023-11-28T23:38:04.958Z,53.24
2023-11-28T23:40:35.822Z,53.33
2023-11-28T23:43:06.681Z,53.41
2023-11-28T23:45:37.472Z,53.53
2023-11-28T23:48:09.107Z,53.47
2023-11-28T23:50:39.937Z,53.67
2023-11-28T23:53:10.868Z,53.72
2023-11-28T23:55:42.048Z,53.52
2023-11-28T23:58:13.073Z,53.72
